Time;durP1;ratioP1;P1;durP2;ratioP2;P2;SDS_P1;SDS_P2;PMS_P1;PMS_P2;Temp;Humidity;BMP_temperature;BMP_pressure;BME280_temperature;BME280_humidity;BME280_pressure;Samples;Min_cycle;Max_cycle;Signal;HPM_P1;HPM_P2
2021/06/30 00:01:31;;;;;;;1.40;1.30;;;19.70;43.20;;;;;;10446281;28;20231;-77
2021/06/30 00:06:40;;;;;;;1.40;1.30;;;19.60;43.10;;;;;;10444443;28;20221;-77
2021/06/30 00:11:48;;;;;;;1.60;1.50;;;19.60;43.20;;;;;;10453577;28;20735;-76
2021/06/30 00:16:57;;;;;;;2.80;1.50;;;19.60;43.10;;;;;;10449661;28;20231;-76
2021/06/30 00:22:06;;;;;;;1.80;1.40;;;19.60;43.40;;;;;;10453278;28;20301;-76
2021/06/30 00:27:14;;;;;;;3.60;1.60;;;19.60;43.70;;;;;;10446073;28;20308;-76
2021/06/30 00:32:23;;;;;;;2.10;1.50;;;19.60;43.20;;;;;;10452330;28;20709;-76
2021/06/30 00:37:32;;;;;;;4.03;2.00;;;19.60;43.20;;;;;;10446263;28;20229;-76
2021/06/30 00:42:40;;;;;;;2.10;2.00;;;19.60;43.70;;;;;;10441998;28;20333;-76
2021/06/30 00:47:48;;;;;;;2.93;2.00;;;19.60;43.40;;;;;;10446134;28;20214;-76
2021/06/30 00:52:58;;;;;;;2.10;2.00;;;19.60;43.50;;;;;;10441253;28;20214;-77
2021/06/30 00:58:06;;;;;;;2.47;2.27;;;19.60;44.10;;;;;;10446569;28;20217;-73
2021/06/30 01:03:14;;;;;;;2.63;2.10;;;19.60;43.70;;;;;;10435734;28;20307;-74
2021/06/30 01:08:24;;;;;;;2.20;2.00;;;19.60;43.60;;;;;;10440303;28;20303;-74
2021/06/30 01:13:32;;;;;;;1.87;1.73;;;19.60;44.10;;;;;;10437628;28;20229;-74
2021/06/30 01:18:40;;;;;;;2.00;1.80;;;19.60;43.70;;;;;;10452161;28;20221;-74
2021/06/30 01:23:49;;;;;;;2.07;1.90;;;19.60;43.70;;;;;;10444469;28;20227;-74
2021/06/30 01:28:57;;;;;;;2.73;1.87;;;19.60;44.20;;;;;;10443247;28;20225;-74
2021/06/30 01:34:06;;;;;;;2.83;2.30;;;19.60;43.80;;;;;;10442570;28;20299;-73
2021/06/30 01:39:16;;;;;;;2.07;1.90;;;19.60;43.70;;;;;;10450173;28;20319;-74
2021/06/30 01:44:24;;;;;;;2.10;2.00;;;19.60;44.60;;;;;;10437611;28;20239;-74
2021/06/30 01:49:32;;;;;;;3.23;2.13;;;19.50;43.90;;;;;;10445036;28;20316;-74
2021/06/30 01:54:41;;;;;;;3.10;2.40;;;19.40;44.10;;;;;;10441340;28;20231;-74
2021/06/30 01:59:50;;;;;;;2.33;2.17;;;19.30;44.80;;;;;;10432529;28;20308;-74
2021/06/30 02:05:07;;;;;;;2.03;1.80;;;19.30;44.30;;;;;;10430379;28;20308;-74
2021/06/30 02:10:14;;;;;;;2.10;1.60;;;19.20;44.80;;;;;;10441366;28;20240;-74
2021/06/30 02:15:24;;;;;;;1.27;1.03;;;19.20;44.70;;;;;;10461853;28;20320;-74
2021/06/30 02:20:32;;;;;;;1.37;1.27;;;19.20;44.30;;;;;;10436737;28;20252;-74
2021/06/30 02:25:41;;;;;;;1.67;1.37;;;19.20;44.10;;;;;;10452666;28;20224;-74
2021/06/30 02:30:50;;;;;;;1.90;1.70;;;19.20;44.60;;;;;;10451814;28;20217;-74
2021/06/30 02:35:58;;;;;;;1.47;1.40;;;19.10;44.50;;;;;;10450129;28;20222;-74
2021/06/30 02:41:07;;;;;;;1.80;1.70;;;19.10;44.70;;;;;;10454762;28;20227;-74
2021/06/30 02:46:15;;;;;;;1.77;1.60;;;19.10;45.40;;;;;;10456961;28;20232;-74
2021/06/30 02:51:23;;;;;;;1.50;1.40;;;19.10;45.00;;;;;;10447545;28;20307;-74
2021/06/30 02:56:33;;;;;;;1.47;1.40;;;19.10;45.00;;;;;;10460724;28;20330;-74
2021/06/30 03:01:41;;;;;;;1.40;1.30;;;19.20;45.90;;;;;;10454215;28;20308;-74
2021/06/30 03:06:49;;;;;;;1.53;1.43;;;19.10;45.10;;;;;;10454424;28;20724;-74
2021/06/30 03:11:59;;;;;;;1.40;1.30;;;19.10;45.10;;;;;;10466494;28;20224;-74
2021/06/30 03:17:07;;;;;;;1.60;1.50;;;19.10;45.80;;;;;;10441002;28;20677;-74
2021/06/30 03:22:15;;;;;;;1.53;1.30;;;19.00;45.40;;;;;;10449027;28;20744;-74
2021/06/30 03:27:25;;;;;;;1.20;1.10;;;18.90;45.60;;;;;;10457579;28;20348;-74
2021/06/30 03:32:33;;;;;;;1.20;1.10;;;18.90;46.50;;;;;;10458840;28;20224;-74
2021/06/30 03:37:41;;;;;;;0.97;0.97;;;18.70;45.80;;;;;;10443693;28;21085;-74
2021/06/30 03:42:50;;;;;;;1.17;1.00;;;18.70;45.90;;;;;;10455064;28;20221;-74
2021/06/30 03:47:58;;;;;;;0.93;0.93;;;18.70;46.60;;;;;;10440660;28;20312;-74
2021/06/30 03:53:06;;;;;;;1.10;1.10;;;18.70;46.10;;;;;;10441838;28;20227;-74
2021/06/30 03:58:16;;;;;;;0.90;0.90;;;18.60;46.10;;;;;;10454300;28;20591;-74
2021/06/30 04:03:24;;;;;;;1.83;0.80;;;18.60;46.90;;;;;;10439600;28;20304;-74
2021/06/30 04:08:32;;;;;;;0.67;0.67;;;18.50;46.30;;;;;;10450667;28;20324;-74
2021/06/30 04:13:42;;;;;;;0.80;0.80;;;18.60;46.20;;;;;;10436904;28;20241;-76
2021/06/30 04:18:50;;;;;;;0.87;0.60;;;18.50;47.00;;;;;;10445361;28;20225;-77
2021/06/30 04:23:58;;;;;;;0.80;0.80;;;18.50;46.50;;;;;;10437253;28;20213;-76
2021/06/30 04:29:07;;;;;;;0.60;0.60;;;18.40;46.60;;;;;;10442232;28;20221;-76
2021/06/30 04:34:15;;;;;;;0.60;0.60;;;18.30;47.20;;;;;;10457881;28;20224;-76
2021/06/30 04:39:27;;;;;;;0.60;0.60;;;18.40;46.80;;;;;;10435668;28;20228;-77
2021/06/30 04:44:36;;;;;;;0.70;0.70;;;18.40;46.60;;;;;;10430801;28;20658;-76
2021/06/30 04:49:44;;;;;;;0.70;0.70;;;18.50;47.30;;;;;;10443840;28;20252;-76
2021/06/30 04:54:47;;;;;;;0.60;0.60;;;18.40;46.50;;;;;;10447863;28;20217;-76
2021/06/30 04:59:57;;;;;;;1.37;0.67;;;18.40;46.60;;;;;;10442254;28;20575;-76
2021/06/30 05:05:06;;;;;;;0.67;0.67;;;18.40;47.30;;;;;;10437631;28;20732;-76
2021/06/30 05:10:14;;;;;;;0.60;0.60;;;18.40;46.90;;;;;;10453498;28;20646;-75
2021/06/30 05:15:23;;;;;;;0.60;0.60;;;18.50;46.60;;;;;;10443136;28;20242;-76
2021/06/30 05:20:32;;;;;;;1.40;0.60;;;18.50;47.20;;;;;;10436205;28;20693;-76
2021/06/30 05:25:35;;;;;;;0.43;0.43;;;18.50;46.60;;;;;;10445866;28;20312;-75
2021/06/30 05:30:44;;;;;;;1.17;0.50;;;18.40;46.40;;;;;;10444691;28;20219;-75
2021/06/30 05:35:52;;;;;;;0.47;0.47;;;18.40;46.90;;;;;;10447557;28;20228;-76
2021/06/30 05:41:01;;;;;;;1.17;0.50;;;18.30;46.20;;;;;;10452708;28;20704;-76
2021/06/30 05:46:10;;;;;;;1.27;0.60;;;18.30;46.00;;;;;;10446181;28;20887;-75
2021/06/30 05:51:18;;;;;;;0.60;0.60;;;18.20;46.60;;;;;;10443984;28;20221;-76
2021/06/30 05:56:27;;;;;;;1.47;0.80;;;18.20;45.90;;;;;;10445911;28;21009;-76
2021/06/30 06:01:32;;;;;;;0.93;0.50;;;18.10;46.20;;;;;;10450010;28;20320;-75
2021/06/30 06:06:40;;;;;;;0.57;0.53;;;18.20;46.70;;;;;;10447339;28;20222;-75
2021/06/30 06:11:48;;;;;;;0.40;0.40;;;18.20;46.30;;;;;;10452206;28;20217;-75
2021/06/30 06:16:57;;;;;;;0.60;0.60;;;18.30;46.50;;;;;;10453556;28;20223;-75
2021/06/30 06:22:05;;;;;;;0.60;0.60;;;18.30;46.70;;;;;;10442071;28;20213;-75
2021/06/30 06:27:13;;;;;;;0.40;0.40;;;18.40;46.70;;;;;;10449555;28;20627;-75
2021/06/30 06:32:23;;;;;;;0.60;0.50;;;18.60;46.60;;;;;;10447548;28;20260;-75
2021/06/30 06:37:32;;;;;;;0.73;0.60;;;18.70;46.20;;;;;;10443532;28;20717;-75
2021/06/30 06:42:40;;;;;;;0.50;0.50;;;18.90;46.00;;;;;;10441181;28;20304;-76
2021/06/30 06:47:50;;;;;;;0.90;0.50;;;19.00;45.90;;;;;;10455780;28;20303;-75
2021/06/30 06:52:58;;;;;;;0.50;0.50;;;19.10;45.70;;;;;;10452815;28;20309;-74
2021/06/30 06:58:06;;;;;;;0.50;0.50;;;19.10;45.60;;;;;;10444807;28;20686;-73
2021/06/30 07:03:15;;;;;;;1.50;0.50;;;19.20;45.90;;;;;;10441518;28;20304;-74
2021/06/30 07:08:23;;;;;;;0.40;0.40;;;19.30;45.50;;;;;;10442666;28;20225;-74
2021/06/30 07:13:32;;;;;;;2.83;0.40;;;19.30;45.20;;;;;;10436077;28;20296;-74
2021/06/30 07:18:41;;;;;;;0.40;0.40;;;19.50;45.10;;;;;;10445542;28;20232;-74
2021/06/30 07:23:49;;;;;;;0.50;0.50;;;19.60;45.10;;;;;;10454381;28;20312;-74
2021/06/30 07:28:57;;;;;;;0.40;0.40;;;19.70;44.00;;;;;;10446431;28;20598;-74
2021/06/30 07:34:07;;;;;;;0.83;0.50;;;19.80;44.40;;;;;;10458199;28;20255;-73
2021/06/30 07:39:15;;;;;;;1.17;0.63;;;19.80;44.10;;;;;;10449163;28;20296;-73
2021/06/30 07:44:24;;;;;;;0.87;0.70;;;19.90;44.00;;;;;;10456479;28;20307;-74
2021/06/30 07:49:28;;;;;;;0.43;0.43;;;20.00;43.70;;;;;;10442200;28;20228;-74
2021/06/30 07:54:33;;;;;;;0.53;0.53;;;20.10;42.90;;;;;;10458847;28;20231;-74
2021/06/30 07:59:36;;;;;;;0.50;0.50;;;20.10;43.50;;;;;;10448448;28;20262;-73
2021/06/30 08:04:40;;;;;;;0.53;0.40;;;20.20;43.80;;;;;;10449071;28;20901;-74
2021/06/30 08:09:44;;;;;;;0.57;0.57;;;20.30;43.90;;;;;;10440798;28;20228;-74
2021/06/30 08:14:47;;;;;;;0.50;0.50;;;20.50;43.30;;;;;;10455057;28;20752;-74
2021/06/30 08:19:51;;;;;;;0.70;0.50;;;20.60;43.10;;;;;;10450287;28;20221;-74
2021/06/30 08:24:55;;;;;;;0.60;0.60;;;20.70;42.10;;;;;;10450613;28;20232;-74
2021/06/30 08:30:00;;;;;;;0.53;0.53;;;20.80;43.00;;;;;;10439291;28;20970;-71
2021/06/30 08:35:05;;;;;;;0.40;0.40;;;20.90;42.70;;;;;;10431352;28;20587;-74
2021/06/30 08:40:10;;;;;;;0.60;0.60;;;21.10;42.00;;;;;;10450372;28;20227;-74
2021/06/30 08:45:14;;;;;;;0.50;0.50;;;21.20;41.30;;;;;;10453030;28;20220;-73
2021/06/30 08:50:19;;;;;;;0.60;0.60;;;21.30;41.50;;;;;;10444428;28;20224;-74
2021/06/30 08:55:23;;;;;;;0.47;0.47;;;21.40;40.50;;;;;;10441696;28;20247;-74
2021/06/30 09:00:26;;;;;;;0.40;0.40;;;21.30;40.70;;;;;;10442760;28;20651;-74
2021/06/30 09:10:54;;;;;;;0.57;0.57;;;21.30;40.60;;;;;;10424518;28;20240;-74
2021/06/30 09:15:58;;;;;;;0.50;0.50;;;21.40;41.20;;;;;;10443231;28;20223;-73
2021/06/30 09:21:18;;;;;;;0.50;0.50;;;21.40;40.40;;;;;;10446373;28;20589;-73
2021/06/30 09:26:22;;;;;;;0.73;0.50;;;21.40;40.10;;;;;;10447218;28;20232;-73
2021/06/30 09:31:27;;;;;;;0.50;0.50;;;21.50;40.10;;;;;;10451473;28;20248;-74
2021/06/30 09:36:43;;;;;;;0.40;0.40;;;21.60;39.30;;;;;;10449087;28;20224;-73
2021/06/30 09:41:47;;;;;;;0.50;0.50;;;21.50;38.60;;;;;;10438897;28;20595;-74
2021/06/30 09:46:54;;;;;;;0.50;0.50;;;21.50;39.20;;;;;;10447212;28;21011;-74
2021/06/30 09:52:08;;;;;;;0.50;0.50;;;21.40;38.60;;;;;;10450466;28;20227;-75
2021/06/30 09:57:13;;;;;;;1.13;0.60;;;21.40;39.40;;;;;;10447337;28;20323;-74
2021/06/30 10:02:18;;;;;;;0.63;0.50;;;21.40;39.50;;;;;;10452671;28;20217;-74
2021/06/30 10:07:27;;;;;;;0.60;0.60;;;21.40;39.20;;;;;;10445517;28;20274;-75
2021/06/30 10:12:32;;;;;;;0.80;0.50;;;21.50;37.90;;;;;;10445160;28;20220;-75
2021/06/30 10:17:38;;;;;;;0.40;0.40;;;21.50;38.70;;;;;;10441342;28;20320;-74
2021/06/30 10:22:43;;;;;;;0.60;0.60;;;21.60;39.50;;;;;;10443049;28;20275;-74
2021/06/30 10:27:46;;;;;;;0.67;0.60;;;21.60;37.90;;;;;;10438355;28;20228;-76
2021/06/30 10:32:58;;;;;;;0.70;0.70;;;21.60;37.90;;;;;;10443743;28;20225;-76
2021/06/30 10:38:07;;;;;;;0.83;0.40;;;21.60;37.90;;;;;;10446187;28;20236;-75
2021/06/30 10:43:12;;;;;;;0.50;0.50;;;21.70;38.00;;;;;;10436605;28;20249;-75
2021/06/30 10:48:16;;;;;;;0.40;0.40;;;21.70;38.00;;;;;;10443496;28;20232;-75
2021/06/30 10:53:41;;;;;;;0.60;0.60;;;21.70;38.00;;;;;;10452245;28;20650;-76
2021/06/30 10:59:03;;;;;;;0.73;0.50;;;21.70;37.70;;;;;;10448751;28;20236;-76
2021/06/30 11:04:06;;;;;;;0.63;0.63;;;21.70;37.50;;;;;;10451748;28;20255;-75
2021/06/30 11:09:24;;;;;;;0.60;0.60;;;21.70;38.00;;;;;;10445655;28;20243;-75
2021/06/30 11:14:41;;;;;;;0.53;0.53;;;21.70;38.00;;;;;;10450855;28;20236;-77
2021/06/30 11:19:49;;;;;;;0.60;0.60;;;21.70;38.00;;;;;;10447023;28;20225;-76
2021/06/30 11:24:55;;;;;;;0.60;0.60;;;21.70;38.00;;;;;;10455618;28;20216;-76
2021/06/30 11:29:59;;;;;;;0.60;0.60;;;21.60;37.90;;;;;;10447831;28;20225;-76
2021/06/30 11:35:05;;;;;;;0.80;0.67;;;21.50;38.10;;;;;;10453288;28;20761;-75
2021/06/30 11:40:15;;;;;;;0.80;0.70;;;21.30;37.90;;;;;;10457028;28;20224;-75
2021/06/30 11:45:19;;;;;;;0.83;0.80;;;21.20;38.50;;;;;;10453992;28;20217;-75
2021/06/30 11:50:25;;;;;;;0.67;0.67;;;21.00;38.50;;;;;;10445656;28;20606;-75
2021/06/30 11:55:39;;;;;;;0.50;0.50;;;20.80;39.20;;;;;;10452435;28;20319;-75
2021/06/30 12:00:44;;;;;;;0.77;0.70;;;20.60;39.70;;;;;;10450027;28;20657;-75
2021/06/30 12:05:47;;;;;;;0.80;0.80;;;20.50;40.10;;;;;;10449567;28;20233;-75
2021/06/30 12:10:52;;;;;;;0.87;0.60;;;20.40;39.80;;;;;;10453927;28;20697;-76
2021/06/30 12:15:55;;;;;;;0.87;0.87;;;20.40;40.30;;;;;;10444770;28;20224;-76
2021/06/30 12:20:59;;;;;;;1.33;0.77;;;20.40;40.40;;;;;;10432663;28;20223;-77
2021/06/30 12:26:07;;;;;;;1.00;1.00;;;20.40;40.70;;;;;;10444105;28;20643;-75
2021/06/30 12:31:11;;;;;;;0.67;0.67;;;20.50;40.80;;;;;;10455225;28;20307;-76
2021/06/30 12:36:16;;;;;;;0.80;0.80;;;20.60;40.40;;;;;;10448328;28;20886;-76
2021/06/30 12:41:21;;;;;;;0.80;0.80;;;20.60;40.40;;;;;;10442817;28;20759;-76
2021/06/30 12:46:26;;;;;;;2.20;0.83;;;20.70;40.30;;;;;;10453894;28;20229;-76
2021/06/30 12:51:32;;;;;;;0.80;0.80;;;20.60;39.80;;;;;;10443059;28;20237;-76
2021/06/30 12:56:43;;;;;;;0.53;0.53;;;20.60;40.00;;;;;;10441025;28;20248;-76
2021/06/30 13:01:49;;;;;;;0.70;0.70;;;20.60;40.10;;;;;;10449073;28;20217;-77
2021/06/30 13:06:53;;;;;;;0.63;0.63;;;20.60;40.30;;;;;;10438047;28;20320;-78
2021/06/30 13:11:59;;;;;;;1.90;0.87;;;20.50;40.30;;;;;;10438151;28;20223;-78
2021/06/30 13:17:06;;;;;;;0.63;0.63;;;20.50;40.40;;;;;;10440483;28;20236;-74
2021/06/30 13:22:17;;;;;;;0.63;0.63;;;20.50;40.40;;;;;;10447344;28;20232;-76
2021/06/30 13:27:40;;;;;;;1.53;0.83;;;20.50;40.60;;;;;;10446699;28;20233;-76
2021/06/30 13:38:08;;;;;;;0.80;0.80;;;20.50;40.70;;;;;;10411697;28;20713;-75
2021/06/30 13:43:15;;;;;;;0.77;0.77;;;20.50;40.60;;;;;;10407355;28;20747;-76
2021/06/30 13:48:22;;;;;;;1.00;1.00;;;20.40;40.60;;;;;;10423650;28;20233;-76
2021/06/30 13:53:27;;;;;;;0.93;0.93;;;20.40;40.70;;;;;;10447215;28;20225;-75
2021/06/30 13:58:32;;;;;;;1.03;1.00;;;20.40;40.80;;;;;;10442648;28;20235;-75
2021/06/30 14:03:36;;;;;;;0.80;0.80;;;20.40;41.00;;;;;;10439225;28;20316;-74
2021/06/30 14:08:39;;;;;;;1.10;0.80;;;20.40;41.10;;;;;;10436922;28;20229;-75
2021/06/30 14:13:44;;;;;;;0.83;0.83;;;20.40;40.90;;;;;;10432844;28;20586;-75
2021/06/30 14:18:47;;;;;;;0.90;0.90;;;20.40;40.70;;;;;;10433707;28;20713;-75
2021/06/30 14:23:50;;;;;;;1.03;0.97;;;20.40;40.70;;;;;;10436014;28;20599;-75
2021/06/30 14:28:55;;;;;;;1.00;1.00;;;20.40;40.60;;;;;;10431878;28;20217;-75
2021/06/30 14:33:58;;;;;;;1.00;1.00;;;20.40;40.90;;;;;;10434998;28;20221;-75
2021/06/30 14:39:01;;;;;;;2.63;1.00;;;20.30;40.80;;;;;;10428116;28;20221;-75
2021/06/30 14:44:06;;;;;;;1.23;0.87;;;20.30;41.00;;;;;;10430406;28;20275;-75
2021/06/30 14:49:09;;;;;;;0.90;0.90;;;20.30;41.10;;;;;;10427554;28;20229;-75
2021/06/30 14:54:12;;;;;;;0.90;0.90;;;20.40;41.20;;;;;;10438503;28;20224;-74
2021/06/30 14:59:17;;;;;;;0.90;0.90;;;20.50;41.30;;;;;;10447084;28;20251;-74
2021/06/30 15:04:20;;;;;;;0.80;0.80;;;20.60;41.10;;;;;;10434583;28;20229;-75
2021/06/30 15:09:25;;;;;;;0.70;0.70;;;20.60;41.10;;;;;;10440875;28;20232;-71
2021/06/30 15:14:29;;;;;;;0.80;0.80;;;20.70;41.00;;;;;;10440632;28;21143;-70
2021/06/30 15:19:32;;;;;;;0.80;0.80;;;20.80;41.20;;;;;;10439273;28;20228;-70
2021/06/30 15:24:36;;;;;;;0.93;0.93;;;20.70;40.60;;;;;;10443657;28;20240;-71
2021/06/30 15:29:42;;;;;;;0.70;0.70;;;20.70;41.10;;;;;;10447693;28;20244;-71
2021/06/30 15:34:46;;;;;;;0.70;0.70;;;20.70;41.20;;;;;;10447485;28;20576;-71
2021/06/30 15:39:49;;;;;;;0.67;0.67;;;20.70;41.40;;;;;;10453036;28;20244;-71
2021/06/30 15:44:53;;;;;;;1.03;0.77;;;20.70;41.20;;;;;;10450467;28;20225;-71
2021/06/30 15:49:57;;;;;;;0.50;0.50;;;20.80;41.80;;;;;;10449682;28;20224;-71
2021/06/30 15:55:00;;;;;;;1.17;0.80;;;20.80;41.20;;;;;;10449916;28;20221;-71
2021/06/30 16:00:07;;;;;;;0.63;0.60;;;20.80;40.90;;;;;;10453413;28;20220;-71
2021/06/30 16:05:12;;;;;;;0.60;0.60;;;20.80;41.00;;;;;;10448470;28;20225;-71
2021/06/30 16:10:16;;;;;;;0.70;0.70;;;21.00;41.10;;;;;;10451007;28;20233;-71
2021/06/30 16:15:21;;;;;;;0.80;0.80;;;21.00;40.40;;;;;;10440565;28;20612;-71
2021/06/30 16:20:46;;;;;;;0.70;0.70;;;21.10;40.60;;;;;;10445774;28;20908;-71
2021/06/30 16:25:51;;;;;;;1.97;0.87;;;21.10;40.50;;;;;;10453951;28;20232;-70
2021/06/30 16:30:57;;;;;;;0.80;0.80;;;21.10;40.50;;;;;;10452462;28;20224;-71
2021/06/30 16:36:00;;;;;;;0.93;0.83;;;21.20;40.70;;;;;;10446164;28;20859;-71
2021/06/30 16:41:05;;;;;;;1.10;1.00;;;21.20;40.60;;;;;;10449718;28;20213;-71
2021/06/30 16:46:09;;;;;;;0.90;0.90;;;21.20;40.70;;;;;;10449304;28;20232;-71
2021/06/30 16:51:12;;;;;;;1.90;0.90;;;21.20;40.60;;;;;;10442615;28;20229;-71
2021/06/30 16:56:16;;;;;;;1.23;0.80;;;21.20;40.90;;;;;;10443473;28;20238;-71
2021/06/30 17:01:21;;;;;;;1.00;0.90;;;21.20;40.50;;;;;;10455796;28;20232;-71
2021/06/30 17:06:27;;;;;;;0.70;0.70;;;21.20;40.60;;;;;;10447769;28;20233;-70
2021/06/30 17:11:30;;;;;;;0.90;0.90;;;21.30;40.60;;;;;;10449314;28;20233;-71
2021/06/30 17:16:37;;;;;;;0.80;0.80;;;21.40;40.80;;;;;;10449687;28;20232;-71
2021/06/30 17:21:41;;;;;;;0.80;0.80;;;21.50;40.60;;;;;;10454448;28;20315;-71
2021/06/30 17:26:44;;;;;;;0.90;0.90;;;21.50;40.30;;;;;;10450795;28;20236;-70
2021/06/30 17:31:48;;;;;;;0.70;0.70;;;21.50;40.40;;;;;;10448125;28;20221;-70
2021/06/30 17:36:52;;;;;;;0.80;0.80;;;21.50;40.40;;;;;;10448795;28;20236;-70
2021/06/30 17:41:55;;;;;;;1.50;0.87;;;21.50;40.30;;;;;;10452767;28;20255;-70
2021/06/30 17:47:00;;;;;;;1.90;0.80;;;21.50;40.30;;;;;;10452699;28;20224;-70
2021/06/30 17:52:03;;;;;;;0.70;0.70;;;21.50;40.40;;;;;;10442907;28;20688;-71
2021/06/30 17:57:06;;;;;;;1.03;0.80;;;21.50;40.50;;;;;;10438518;28;20229;-71
2021/06/30 18:02:11;;;;;;;0.70;0.70;;;21.50;40.50;;;;;;10451197;28;20220;-71
2021/06/30 18:07:14;;;;;;;1.13;1.03;;;21.50;40.50;;;;;;10447133;28;20225;-71
2021/06/30 18:12:18;;;;;;;0.50;0.50;;;21.60;40.20;;;;;;10449836;28;20225;-71
2021/06/30 18:17:23;;;;;;;0.80;0.80;;;21.50;40.20;;;;;;10449923;28;20841;-71
2021/06/30 18:22:26;;;;;;;1.30;0.70;;;21.50;40.20;;;;;;10447329;28;20228;-71
2021/06/30 18:27:29;;;;;;;0.90;0.90;;;21.60;40.10;;;;;;10447674;28;20237;-75
2021/06/30 18:32:34;;;;;;;1.00;0.90;;;21.50;39.80;;;;;;10448571;28;20236;-74
2021/06/30 18:37:38;;;;;;;0.70;0.70;;;21.50;39.60;;;;;;10443156;28;20872;-75
2021/06/30 18:42:42;;;;;;;0.60;0.60;;;21.40;39.80;;;;;;10440274;28;20228;-75
2021/06/30 18:47:47;;;;;;;0.73;0.73;;;21.40;39.80;;;;;;10453280;28;20225;-75
2021/06/30 18:52:50;;;;;;;0.70;0.70;;;21.30;39.50;;;;;;10451186;28;20216;-75
2021/06/30 18:57:56;;;;;;;1.13;0.70;;;21.30;39.70;;;;;;10447144;28;20220;-75
2021/06/30 19:03:01;;;;;;;1.73;0.60;;;21.20;39.80;;;;;;10442798;28;20223;-75
2021/06/30 19:08:05;;;;;;;0.70;0.70;;;21.10;39.90;;;;;;10445559;28;20224;-75
2021/06/30 19:13:08;;;;;;;0.70;0.70;;;21.00;39.80;;;;;;10460738;28;21032;-75
2021/06/30 19:18:13;;;;;;;0.70;0.70;;;20.90;40.00;;;;;;10452656;28;20239;-75
2021/06/30 19:23:16;;;;;;;0.60;0.60;;;20.80;40.00;;;;;;10455829;28;20227;-75
2021/06/30 19:28:21;;;;;;;1.00;0.60;;;20.70;39.60;;;;;;10453909;28;20931;-75
2021/06/30 19:33:26;;;;;;;0.40;0.40;;;20.70;39.60;;;;;;10449834;28;20229;-75
2021/06/30 19:38:29;;;;;;;0.60;0.60;;;20.60;39.40;;;;;;10450760;28;20347;-74
2021/06/30 19:43:32;;;;;;;1.30;0.40;;;20.60;39.50;;;;;;10452813;28;20791;-74
2021/06/30 19:48:38;;;;;;;1.67;0.73;;;20.50;39.50;;;;;;10449841;28;20251;-74
2021/06/30 19:53:41;;;;;;;0.57;0.57;;;20.40;39.20;;;;;;10455628;28;20723;-74
2021/06/30 19:58:45;;;;;;;0.53;0.50;;;20.30;39.30;;;;;;10450948;28;20232;-69
2021/06/30 20:03:50;;;;;;;1.13;0.60;;;20.20;39.40;;;;;;10449566;28;20598;-69
2021/06/30 20:08:53;;;;;;;1.27;0.60;;;20.20;39.60;;;;;;10449496;28;20713;-69
2021/06/30 20:13:56;;;;;;;2.33;0.70;;;20.10;39.70;;;;;;10452162;28;20311;-69
2021/06/30 20:19:02;;;;;;;1.03;0.77;;;20.00;39.90;;;;;;10449991;28;20220;-69
2021/06/30 20:24:06;;;;;;;0.63;0.50;;;19.90;40.20;;;;;;10456155;28;20212;-69
2021/06/30 20:29:09;;;;;;;0.57;0.57;;;19.90;40.30;;;;;;10460202;28;20231;-69
2021/06/30 20:34:14;;;;;;;0.63;0.63;;;19.80;40.40;;;;;;10452596;28;20235;-69
2021/06/30 20:39:17;;;;;;;3.60;0.50;;;19.70;40.70;;;;;;10449338;28;20236;-69
2021/06/30 20:44:22;;;;;;;0.60;0.60;;;19.70;40.60;;;;;;10451139;28;20728;-69
2021/06/30 20:49:27;;;;;;;0.90;0.60;;;19.60;40.70;;;;;;10453572;28;20693;-69
2021/06/30 20:54:30;;;;;;;0.60;0.60;;;19.50;40.80;;;;;;10450422;28;20238;-69
2021/06/30 20:59:33;;;;;;;0.97;0.50;;;19.40;40.80;;;;;;10454219;28;20235;-69
2021/06/30 21:04:38;;;;;;;1.23;0.70;;;19.30;41.20;;;;;;10453563;28;20225;-69
2021/06/30 21:09:41;;;;;;;0.57;0.57;;;19.20;41.50;;;;;;10448655;28;20232;-69
2021/06/30 21:14:49;;;;;;;0.57;0.50;;;19.10;41.50;;;;;;10456695;28;20235;-69
2021/06/30 21:19:54;;;;;;;0.83;0.60;;;18.90;41.70;;;;;;10454362;28;20233;-69
2021/06/30 21:24:57;;;;;;;0.87;0.60;;;18.90;42.30;;;;;;10451992;28;20221;-69
2021/06/30 21:30:01;;;;;;;1.13;0.53;;;18.90;42.00;;;;;;10445744;28;20220;-69
2021/06/30 21:35:06;;;;;;;0.73;0.70;;;18.80;42.10;;;;;;10449170;28;20263;-69
2021/06/30 21:40:11;;;;;;;0.57;0.57;;;18.70;43.30;;;;;;10455339;28;20248;-69
2021/06/30 21:45:15;;;;;;;0.80;0.73;;;18.70;42.30;;;;;;10445279;28;20231;-69
2021/06/30 21:50:19;;;;;;;1.37;0.50;;;18.70;42.40;;;;;;10452801;28;20236;-69
2021/06/30 21:55:23;;;;;;;0.63;0.57;;;18.60;42.90;;;;;;10449614;28;20244;-69
2021/06/30 22:00:28;;;;;;;0.60;0.60;;;18.60;42.60;;;;;;10442741;28;20578;-69
2021/06/30 22:05:33;;;;;;;0.67;0.67;;;18.60;43.00;;;;;;10454580;28;20228;-69
2021/06/30 22:10:37;;;;;;;0.83;0.50;;;18.50;43.10;;;;;;10452019;28;20232;-69
2021/06/30 22:15:40;;;;;;;0.73;0.60;;;18.40;42.90;;;;;;10445962;28;20229;-69
2021/06/30 22:20:47;;;;;;;0.73;0.50;;;18.30;43.20;;;;;;10445758;28;20238;-69
2021/06/30 22:25:50;;;;;;;0.50;0.50;;;18.20;44.40;;;;;;10454629;28;20220;-69
2021/06/30 22:30:54;;;;;;;0.60;0.60;;;18.20;43.40;;;;;;10449854;28;20229;-69
2021/06/30 22:35:58;;;;;;;0.60;0.60;;;18.20;43.40;;;;;;10444501;28;20228;-69
2021/06/30 22:41:02;;;;;;;0.80;0.80;;;18.20;44.00;;;;;;10435046;28;20247;-71
2021/06/30 22:46:05;;;;;;;0.50;0.50;;;18.10;43.90;;;;;;10453153;28;20755;-70
2021/06/30 22:51:10;;;;;;;1.50;0.60;;;18.00;43.80;;;;;;10454356;28;20248;-69
2021/06/30 22:56:13;;;;;;;0.67;0.50;;;18.00;44.60;;;;;;10451473;28;20232;-69
2021/06/30 23:01:16;;;;;;;0.60;0.60;;;18.00;44.00;;;;;;10450781;28;20228;-69
2021/06/30 23:06:21;;;;;;;0.50;0.50;;;18.00;44.00;;;;;;10450876;28;20689;-70
2021/06/30 23:11:25;;;;;;;0.93;0.70;;;18.00;44.50;;;;;;10452624;28;20233;-69
2021/06/30 23:16:28;;;;;;;1.03;0.50;;;18.00;44.00;;;;;;10454849;28;20758;-69
2021/06/30 23:21:33;;;;;;;1.20;0.50;;;17.90;44.00;;;;;;10457997;28;20228;-69
2021/06/30 23:26:36;;;;;;;0.50;0.50;;;17.80;44.70;;;;;;10451329;28;20221;-69
2021/06/30 23:31:39;;;;;;;1.30;0.50;;;17.70;44.30;;;;;;10451238;28;20613;-69
2021/06/30 23:36:44;;;;;;;0.77;0.50;;;17.60;44.60;;;;;;10460478;28;20235;-69
2021/06/30 23:41:47;;;;;;;0.60;0.60;;;17.60;45.20;;;;;;10445984;28;20222;-69
2021/06/30 23:46:50;;;;;;;0.67;0.50;;;17.50;44.80;;;;;;10447834;28;20222;-69
2021/06/30 23:51:55;;;;;;;0.50;0.50;;;17.40;45.00;;;;;;10448862;28;20435;-69
2021/06/30 23:56:59;;;;;;;0.60;0.60;;;17.40;46.20;;;;;;10454468;28;20225;-69
